sensor_id;sensor_type;location;lat;lon;timestamp;P1;durP1;ratioP1;P2;durP2;ratioP2
40162;SDS011;25881;47.462;19.304;2022-12-20T00:01:12;85.68;;;37.33;;
40162;SDS011;25881;47.462;19.304;2022-12-20T00:03:38;88.07;;;36.88;;
40162;SDS011;25881;47.462;19.304;2022-12-20T00:06:03;87.97;;;38.78;;
40162;SDS011;25881;47.462;19.304;2022-12-20T00:08:28;84.88;;;38.40;;
40162;SDS011;25881;47.462;19.304;2022-12-20T00:10:54;95.63;;;41.38;;
40162;SDS011;25881;47.462;19.304;2022-12-20T00:13:19;100.38;;;38.97;;
40162;SDS011;25881;47.462;19.304;2022-12-20T00:15:44;94.97;;;40.67;;
40162;SDS011;25881;47.462;19.304;2022-12-20T00:18:10;90.70;;;40.07;;
40162;SDS011;25881;47.462;19.304;2022-12-20T00:20:35;95.23;;;38.50;;
40162;SDS011;25881;47.462;19.304;2022-12-20T00:23:00;92.65;;;39.38;;
40162;SDS011;25881;47.462;19.304;2022-12-20T00:25:26;87.28;;;37.00;;
40162;SDS011;25881;47.462;19.304;2022-12-20T00:27:51;91.15;;;40.75;;
40162;SDS011;25881;47.462;19.304;2022-12-20T00:30:16;84.25;;;39.50;;
40162;SDS011;25881;47.462;19.304;2022-12-20T00:32:42;90.45;;;36.55;;
40162;SDS011;25881;47.462;19.304;2022-12-20T00:35:07;83.50;;;38.42;;
40162;SDS011;25881;47.462;19.304;2022-12-20T00:37:33;92.35;;;40.75;;
40162;SDS011;25881;47.462;19.304;2022-12-20T00:39:58;89.07;;;40.83;;
40162;SDS011;25881;47.462;19.304;2022-12-20T00:42:23;91.03;;;40.07;;
40162;SDS011;25881;47.462;19.304;2022-12-20T00:44:48;88.72;;;37.55;;
40162;SDS011;25881;47.462;19.304;2022-12-20T00:47:14;86.47;;;39.67;;
40162;SDS011;25881;47.462;19.304;2022-12-20T00:49:39;86.10;;;37.77;;
40162;SDS011;25881;47.462;19.304;2022-12-20T00:52:05;83.75;;;35.80;;
40162;SDS011;25881;47.462;19.304;2022-12-20T00:54:30;90.07;;;39.17;;
40162;SDS011;25881;47.462;19.304;2022-12-20T00:56:55;87.57;;;38.17;;
40162;SDS011;25881;47.462;19.304;2022-12-20T00:59:20;84.67;;;39.33;;
40162;SDS011;25881;47.462;19.304;2022-12-20T01:01:46;81.50;;;36.30;;
40162;SDS011;25881;47.462;19.304;2022-12-20T01:04:11;78.47;;;37.35;;
40162;SDS011;25881;47.462;19.304;2022-12-20T01:06:37;85.32;;;35.65;;
40162;SDS011;25881;47.462;19.304;2022-12-20T01:09:02;83.10;;;39.30;;
40162;SDS011;25881;47.462;19.304;2022-12-20T01:11:29;86.40;;;38.13;;
40162;SDS011;25881;47.462;19.304;2022-12-20T01:13:56;84.80;;;40.50;;
40162;SDS011;25881;47.462;19.304;2022-12-20T01:16:29;87.10;;;39.33;;
40162;SDS011;25881;47.462;19.304;2022-12-20T01:18:55;85.35;;;37.47;;
40162;SDS011;25881;47.462;19.304;2022-12-20T01:21:21;87.40;;;38.38;;
40162;SDS011;25881;47.462;19.304;2022-12-20T01:23:47;88.22;;;38.25;;
40162;SDS011;25881;47.462;19.304;2022-12-20T01:26:13;85.78;;;39.42;;
40162;SDS011;25881;47.462;19.304;2022-12-20T01:28:40;91.53;;;40.45;;
40162;SDS011;25881;47.462;19.304;2022-12-20T01:31:09;91.20;;;40.55;;
40162;SDS011;25881;47.462;19.304;2022-12-20T01:33:35;86.30;;;37.05;;
40162;SDS011;25881;47.462;19.304;2022-12-20T01:36:04;86.35;;;34.78;;
40162;SDS011;25881;47.462;19.304;2022-12-20T01:38:30;79.60;;;33.75;;
40162;SDS011;25881;47.462;19.304;2022-12-20T01:40:56;79.63;;;34.75;;
40162;SDS011;25881;47.462;19.304;2022-12-20T01:43:22;79.03;;;34.67;;
40162;SDS011;25881;47.462;19.304;2022-12-20T01:45:47;80.30;;;36.00;;
40162;SDS011;25881;47.462;19.304;2022-12-20T01:48:13;74.77;;;33.53;;
40162;SDS011;25881;47.462;19.304;2022-12-20T01:50:39;84.97;;;35.25;;
40162;SDS011;25881;47.462;19.304;2022-12-20T01:53:08;77.38;;;33.63;;
40162;SDS011;25881;47.462;19.304;2022-12-20T01:55:34;76.20;;;33.90;;
40162;SDS011;25881;47.462;19.304;2022-12-20T01:58:01;83.57;;;36.28;;
40162;SDS011;25881;47.462;19.304;2022-12-20T02:00:27;74.53;;;34.92;;
40162;SDS011;25881;47.462;19.304;2022-12-20T02:02:53;75.30;;;34.72;;
40162;SDS011;25881;47.462;19.304;2022-12-20T02:05:20;69.53;;;31.75;;
40162;SDS011;25881;47.462;19.304;2022-12-20T02:07:47;79.07;;;34.00;;
40162;SDS011;25881;47.462;19.304;2022-12-20T02:10:13;85.90;;;35.53;;
40162;SDS011;25881;47.462;19.304;2022-12-20T02:12:40;76.60;;;35.35;;
40162;SDS011;25881;47.462;19.304;2022-12-20T02:30:34;83.97;;;36.13;;
40162;SDS011;25881;47.462;19.304;2022-12-20T02:33:02;78.78;;;36.30;;
40162;SDS011;25881;47.462;19.304;2022-12-20T02:35:29;81.78;;;35.55;;
40162;SDS011;25881;47.462;19.304;2022-12-20T02:37:59;84.03;;;35.45;;
40162;SDS011;25881;47.462;19.304;2022-12-20T02:40:28;81.05;;;35.53;;
40162;SDS011;25881;47.462;19.304;2022-12-20T02:42:59;75.75;;;35.13;;
40162;SDS011;25881;47.462;19.304;2022-12-20T02:45:26;72.72;;;31.95;;
40162;SDS011;25881;47.462;19.304;2022-12-20T02:47:57;79.68;;;32.33;;
40162;SDS011;25881;47.462;19.304;2022-12-20T02:50:30;77.57;;;34.33;;
40162;SDS011;25881;47.462;19.304;2022-12-20T02:52:57;81.82;;;35.20;;
40162;SDS011;25881;47.462;19.304;2022-12-20T02:55:24;75.78;;;34.28;;
40162;SDS011;25881;47.462;19.304;2022-12-20T02:57:58;79.10;;;35.15;;
40162;SDS011;25881;47.462;19.304;2022-12-20T03:00:25;75.43;;;31.63;;
40162;SDS011;25881;47.462;19.304;2022-12-20T03:02:53;78.43;;;32.70;;
40162;SDS011;25881;47.462;19.304;2022-12-20T03:05:42;74.53;;;33.50;;
40162;SDS011;25881;47.462;19.304;2022-12-20T03:08:08;79.15;;;35.90;;
40162;SDS011;25881;47.462;19.304;2022-12-20T03:10:33;78.53;;;34.80;;
40162;SDS011;25881;47.462;19.304;2022-12-20T03:12:58;77.22;;;33.30;;
40162;SDS011;25881;47.462;19.304;2022-12-20T03:15:23;76.60;;;34.37;;
40162;SDS011;25881;47.462;19.304;2022-12-20T03:17:49;72.25;;;33.85;;
40162;SDS011;25881;47.462;19.304;2022-12-20T03:20:14;75.90;;;33.43;;
40162;SDS011;25881;47.462;19.304;2022-12-20T03:22:39;72.77;;;32.10;;
40162;SDS011;25881;47.462;19.304;2022-12-20T03:25:05;69.73;;;34.13;;
40162;SDS011;25881;47.462;19.304;2022-12-20T03:27:30;72.57;;;31.73;;
40162;SDS011;25881;47.462;19.304;2022-12-20T03:29:55;71.07;;;30.05;;
40162;SDS011;25881;47.462;19.304;2022-12-20T03:32:21;74.13;;;33.53;;
40162;SDS011;25881;47.462;19.304;2022-12-20T03:34:46;73.07;;;29.70;;
40162;SDS011;25881;47.462;19.304;2022-12-20T03:37:12;73.70;;;31.05;;
40162;SDS011;25881;47.462;19.304;2022-12-20T03:39:37;69.27;;;30.00;;
40162;SDS011;25881;47.462;19.304;2022-12-20T03:42:02;77.97;;;32.10;;
40162;SDS011;25881;47.462;19.304;2022-12-20T03:44:27;66.67;;;31.83;;
40162;SDS011;25881;47.462;19.304;2022-12-20T03:46:53;68.20;;;31.23;;
40162;SDS011;25881;47.462;19.304;2022-12-20T03:49:18;65.40;;;31.37;;
40162;SDS011;25881;47.462;19.304;2022-12-20T03:51:43;72.07;;;33.77;;
40162;SDS011;25881;47.462;19.304;2022-12-20T03:54:08;66.82;;;31.88;;
40162;SDS011;25881;47.462;19.304;2022-12-20T03:56:33;60.10;;;29.60;;
40162;SDS011;25881;47.462;19.304;2022-12-20T03:58:59;66.70;;;28.67;;
40162;SDS011;25881;47.462;19.304;2022-12-20T04:01:25;68.28;;;29.90;;
40162;SDS011;25881;47.462;19.304;2022-12-20T04:03:50;66.20;;;29.45;;
40162;SDS011;25881;47.462;19.304;2022-12-20T04:06:16;59.63;;;29.43;;
40162;SDS011;25881;47.462;19.304;2022-12-20T04:08:41;62.90;;;29.52;;
40162;SDS011;25881;47.462;19.304;2022-12-20T04:11:06;68.40;;;29.87;;
40162;SDS011;25881;47.462;19.304;2022-12-20T04:13:50;66.18;;;30.35;;
40162;SDS011;25881;47.462;19.304;2022-12-20T04:16:16;70.10;;;28.75;;
40162;SDS011;25881;47.462;19.304;2022-12-20T04:18:42;64.03;;;28.65;;
40162;SDS011;25881;47.462;19.304;2022-12-20T04:21:08;68.55;;;29.55;;
40162;SDS011;25881;47.462;19.304;2022-12-20T04:23:34;58.35;;;28.85;;
40162;SDS011;25881;47.462;19.304;2022-12-20T04:25:59;63.22;;;28.63;;
40162;SDS011;25881;47.462;19.304;2022-12-20T04:28:25;61.42;;;29.00;;
40162;SDS011;25881;47.462;19.304;2022-12-20T04:30:50;60.07;;;28.33;;
40162;SDS011;25881;47.462;19.304;2022-12-20T04:33:16;64.00;;;30.53;;
40162;SDS011;25881;47.462;19.304;2022-12-20T04:35:41;64.57;;;29.33;;
40162;SDS011;25881;47.462;19.304;2022-12-20T04:38:07;57.05;;;28.23;;
40162;SDS011;25881;47.462;19.304;2022-12-20T04:40:32;62.67;;;29.60;;
40162;SDS011;25881;47.462;19.304;2022-12-20T04:42:57;65.20;;;30.07;;
40162;SDS011;25881;47.462;19.304;2022-12-20T04:45:22;61.20;;;27.73;;
40162;SDS011;25881;47.462;19.304;2022-12-20T04:47:48;61.08;;;27.92;;
40162;SDS011;25881;47.462;19.304;2022-12-20T04:50:13;65.67;;;30.87;;
40162;SDS011;25881;47.462;19.304;2022-12-20T04:52:38;66.00;;;31.70;;
40162;SDS011;25881;47.462;19.304;2022-12-20T04:55:22;64.75;;;29.67;;
40162;SDS011;25881;47.462;19.304;2022-12-20T04:57:47;67.78;;;31.65;;
40162;SDS011;25881;47.462;19.304;2022-12-20T05:00:13;65.85;;;31.40;;
40162;SDS011;25881;47.462;19.304;2022-12-20T05:02:39;74.07;;;29.02;;
40162;SDS011;25881;47.462;19.304;2022-12-20T05:05:04;61.10;;;30.02;;
40162;SDS011;25881;47.462;19.304;2022-12-20T05:07:30;70.28;;;32.15;;
40162;SDS011;25881;47.462;19.304;2022-12-20T05:09:55;69.33;;;31.93;;
40162;SDS011;25881;47.462;19.304;2022-12-20T05:12:20;68.37;;;32.17;;
40162;SDS011;25881;47.462;19.304;2022-12-20T05:14:45;72.60;;;32.28;;
40162;SDS011;25881;47.462;19.304;2022-12-20T05:17:10;70.20;;;32.33;;
40162;SDS011;25881;47.462;19.304;2022-12-20T05:19:36;69.67;;;31.77;;
40162;SDS011;25881;47.462;19.304;2022-12-20T05:22:01;76.80;;;32.97;;
40162;SDS011;25881;47.462;19.304;2022-12-20T05:24:45;73.15;;;31.85;;
40162;SDS011;25881;47.462;19.304;2022-12-20T05:27:29;70.00;;;31.85;;
40162;SDS011;25881;47.462;19.304;2022-12-20T05:29:54;62.27;;;28.83;;
40162;SDS011;25881;47.462;19.304;2022-12-20T05:32:19;62.50;;;31.73;;
40162;SDS011;25881;47.462;19.304;2022-12-20T05:34:45;73.17;;;31.83;;
40162;SDS011;25881;47.462;19.304;2022-12-20T05:37:10;71.50;;;31.40;;
40162;SDS011;25881;47.462;19.304;2022-12-20T05:39:35;68.75;;;33.03;;
40162;SDS011;25881;47.462;19.304;2022-12-20T05:42:00;65.25;;;30.98;;
40162;SDS011;25881;47.462;19.304;2022-12-20T05:44:26;71.97;;;31.73;;
40162;SDS011;25881;47.462;19.304;2022-12-20T05:46:51;67.37;;;32.90;;
40162;SDS011;25881;47.462;19.304;2022-12-20T05:49:16;69.15;;;31.77;;
40162;SDS011;25881;47.462;19.304;2022-12-20T05:51:41;69.43;;;32.28;;
40162;SDS011;25881;47.462;19.304;2022-12-20T05:54:07;66.57;;;30.77;;
40162;SDS011;25881;47.462;19.304;2022-12-20T05:56:32;62.37;;;27.63;;
40162;SDS011;25881;47.462;19.304;2022-12-20T05:58:57;69.73;;;31.07;;
40162;SDS011;25881;47.462;19.304;2022-12-20T06:01:23;64.60;;;31.25;;
40162;SDS011;25881;47.462;19.304;2022-12-20T06:03:49;65.00;;;31.55;;
40162;SDS011;25881;47.462;19.304;2022-12-20T06:06:15;70.47;;;32.38;;
40162;SDS011;25881;47.462;19.304;2022-12-20T06:08:40;65.22;;;30.02;;
40162;SDS011;25881;47.462;19.304;2022-12-20T06:11:05;71.03;;;31.65;;
40162;SDS011;25881;47.462;19.304;2022-12-20T06:13:31;65.05;;;31.33;;
40162;SDS011;25881;47.462;19.304;2022-12-20T06:15:56;66.47;;;32.17;;
40162;SDS011;25881;47.462;19.304;2022-12-20T06:18:21;72.07;;;32.13;;
40162;SDS011;25881;47.462;19.304;2022-12-20T06:20:50;67.60;;;29.57;;
40162;SDS011;25881;47.462;19.304;2022-12-20T06:23:15;71.53;;;32.83;;
40162;SDS011;25881;47.462;19.304;2022-12-20T06:25:40;73.05;;;33.20;;
40162;SDS011;25881;47.462;19.304;2022-12-20T06:28:06;77.33;;;32.67;;
40162;SDS011;25881;47.462;19.304;2022-12-20T06:30:32;72.32;;;33.75;;
40162;SDS011;25881;47.462;19.304;2022-12-20T06:32:58;63.15;;;31.67;;
40162;SDS011;25881;47.462;19.304;2022-12-20T06:35:23;70.20;;;31.02;;
40162;SDS011;25881;47.462;19.304;2022-12-20T06:37:48;66.35;;;31.77;;
40162;SDS011;25881;47.462;19.304;2022-12-20T06:40:13;62.57;;;30.13;;
40162;SDS011;25881;47.462;19.304;2022-12-20T06:42:39;68.80;;;32.28;;
40162;SDS011;25881;47.462;19.304;2022-12-20T06:45:04;72.63;;;33.55;;
40162;SDS011;25881;47.462;19.304;2022-12-20T06:47:30;67.20;;;31.67;;
40162;SDS011;25881;47.462;19.304;2022-12-20T06:49:55;63.63;;;31.80;;
40162;SDS011;25881;47.462;19.304;2022-12-20T06:52:20;71.93;;;32.50;;
40162;SDS011;25881;47.462;19.304;2022-12-20T06:54:46;65.87;;;33.20;;
40162;SDS011;25881;47.462;19.304;2022-12-20T06:57:11;75.00;;;34.07;;
40162;SDS011;25881;47.462;19.304;2022-12-20T06:59:36;64.70;;;31.17;;
40162;SDS011;25881;47.462;19.304;2022-12-20T07:02:01;68.75;;;31.08;;
40162;SDS011;25881;47.462;19.304;2022-12-20T07:04:27;70.40;;;32.85;;
40162;SDS011;25881;47.462;19.304;2022-12-20T07:06:52;71.77;;;31.93;;
40162;SDS011;25881;47.462;19.304;2022-12-20T07:09:17;66.73;;;31.43;;
40162;SDS011;25881;47.462;19.304;2022-12-20T07:11:42;69.50;;;32.03;;
40162;SDS011;25881;47.462;19.304;2022-12-20T07:14:08;65.87;;;32.30;;
40162;SDS011;25881;47.462;19.304;2022-12-20T07:16:33;65.87;;;32.27;;
40162;SDS011;25881;47.462;19.304;2022-12-20T07:18:59;63.65;;;30.50;;
40162;SDS011;25881;47.462;19.304;2022-12-20T07:21:25;60.55;;;29.13;;
40162;SDS011;25881;47.462;19.304;2022-12-20T07:23:51;65.45;;;29.48;;
40162;SDS011;25881;47.462;19.304;2022-12-20T07:26:17;53.80;;;25.83;;
40162;SDS011;25881;47.462;19.304;2022-12-20T07:28:42;61.28;;;30.35;;
40162;SDS011;25881;47.462;19.304;2022-12-20T07:31:08;67.38;;;29.70;;
40162;SDS011;25881;47.462;19.304;2022-12-20T07:33:34;57.40;;;26.85;;
40162;SDS011;25881;47.462;19.304;2022-12-20T07:36:03;56.63;;;26.83;;
40162;SDS011;25881;47.462;19.304;2022-12-20T07:38:28;60.00;;;25.23;;
40162;SDS011;25881;47.462;19.304;2022-12-20T07:40:54;60.75;;;29.15;;
40162;SDS011;25881;47.462;19.304;2022-12-20T07:43:19;56.40;;;28.23;;
40162;SDS011;25881;47.462;19.304;2022-12-20T07:45:44;64.27;;;27.30;;
40162;SDS011;25881;47.462;19.304;2022-12-20T07:48:09;61.17;;;27.17;;
40162;SDS011;25881;47.462;19.304;2022-12-20T07:50:34;64.53;;;29.70;;
40162;SDS011;25881;47.462;19.304;2022-12-20T07:53:00;64.15;;;30.02;;
40162;SDS011;25881;47.462;19.304;2022-12-20T07:55:26;52.17;;;25.42;;
40162;SDS011;25881;47.462;19.304;2022-12-20T07:57:54;58.88;;;28.95;;
40162;SDS011;25881;47.462;19.304;2022-12-20T08:00:21;59.60;;;27.48;;
40162;SDS011;25881;47.462;19.304;2022-12-20T08:02:48;54.08;;;26.17;;
40162;SDS011;25881;47.462;19.304;2022-12-20T08:05:16;51.10;;;26.65;;
40162;SDS011;25881;47.462;19.304;2022-12-20T08:07:41;52.33;;;25.73;;
40162;SDS011;25881;47.462;19.304;2022-12-20T08:10:08;56.47;;;25.83;;
40162;SDS011;25881;47.462;19.304;2022-12-20T08:12:35;57.38;;;27.58;;
40162;SDS011;25881;47.462;19.304;2022-12-20T08:15:00;56.30;;;24.73;;
40162;SDS011;25881;47.462;19.304;2022-12-20T08:17:26;56.90;;;27.08;;
40162;SDS011;25881;47.462;19.304;2022-12-20T08:19:51;51.83;;;26.30;;
40162;SDS011;25881;47.462;19.304;2022-12-20T08:22:16;60.67;;;28.53;;
40162;SDS011;25881;47.462;19.304;2022-12-20T08:24:43;56.78;;;25.85;;
40162;SDS011;25881;47.462;19.304;2022-12-20T08:27:08;60.83;;;25.67;;
40162;SDS011;25881;47.462;19.304;2022-12-20T08:29:33;53.00;;;24.17;;
40162;SDS011;25881;47.462;19.304;2022-12-20T08:31:58;48.83;;;23.77;;
40162;SDS011;25881;47.462;19.304;2022-12-20T08:34:25;49.80;;;23.77;;
40162;SDS011;25881;47.462;19.304;2022-12-20T08:36:50;56.42;;;25.55;;
40162;SDS011;25881;47.462;19.304;2022-12-20T08:39:15;47.47;;;24.47;;
40162;SDS011;25881;47.462;19.304;2022-12-20T08:41:41;43.83;;;23.10;;
40162;SDS011;25881;47.462;19.304;2022-12-20T08:44:06;50.28;;;23.75;;
40162;SDS011;25881;47.462;19.304;2022-12-20T08:46:31;50.55;;;23.15;;
40162;SDS011;25881;47.462;19.304;2022-12-20T08:48:56;50.95;;;24.40;;
40162;SDS011;25881;47.462;19.304;2022-12-20T08:51:22;44.22;;;21.17;;
40162;SDS011;25881;47.462;19.304;2022-12-20T08:53:47;47.22;;;21.92;;
40162;SDS011;25881;47.462;19.304;2022-12-20T08:56:14;50.85;;;24.90;;
40162;SDS011;25881;47.462;19.304;2022-12-20T08:58:40;49.83;;;24.77;;
40162;SDS011;25881;47.462;19.304;2022-12-20T09:01:06;44.95;;;22.95;;
40162;SDS011;25881;47.462;19.304;2022-12-20T09:03:32;51.33;;;23.23;;
40162;SDS011;25881;47.462;19.304;2022-12-20T09:05:58;49.55;;;22.75;;
40162;SDS011;25881;47.462;19.304;2022-12-20T09:08:24;46.08;;;22.73;;
40162;SDS011;25881;47.462;19.304;2022-12-20T09:10:49;50.05;;;24.23;;
40162;SDS011;25881;47.462;19.304;2022-12-20T09:13:15;41.15;;;21.65;;
40162;SDS011;25881;47.462;19.304;2022-12-20T09:15:40;46.42;;;22.50;;
40162;SDS011;25881;47.462;19.304;2022-12-20T09:18:07;51.83;;;24.00;;
40162;SDS011;25881;47.462;19.304;2022-12-20T09:20:32;47.97;;;22.88;;
40162;SDS011;25881;47.462;19.304;2022-12-20T09:22:58;42.67;;;21.98;;
40162;SDS011;25881;47.462;19.304;2022-12-20T09:25:24;45.63;;;22.45;;
40162;SDS011;25881;47.462;19.304;2022-12-20T09:27:49;44.90;;;22.33;;
40162;SDS011;25881;47.462;19.304;2022-12-20T09:30:14;48.50;;;22.43;;
40162;SDS011;25881;47.462;19.304;2022-12-20T09:32:39;42.45;;;21.52;;
40162;SDS011;25881;47.462;19.304;2022-12-20T09:35:05;43.40;;;21.97;;
40162;SDS011;25881;47.462;19.304;2022-12-20T09:37:30;44.75;;;20.40;;
40162;SDS011;25881;47.462;19.304;2022-12-20T09:39:56;45.55;;;21.77;;
40162;SDS011;25881;47.462;19.304;2022-12-20T09:42:23;42.72;;;21.23;;
40162;SDS011;25881;47.462;19.304;2022-12-20T09:44:48;44.60;;;22.95;;
40162;SDS011;25881;47.462;19.304;2022-12-20T09:47:18;41.25;;;21.55;;
40162;SDS011;25881;47.462;19.304;2022-12-20T09:49:45;46.35;;;22.30;;
40162;SDS011;25881;47.462;19.304;2022-12-20T09:59:55;41.88;;;20.05;;
40162;SDS011;25881;47.462;19.304;2022-12-20T10:02:22;39.80;;;20.33;;
40162;SDS011;25881;47.462;19.304;2022-12-20T10:04:47;38.70;;;20.33;;
40162;SDS011;25881;47.462;19.304;2022-12-20T10:17:32;38.77;;;19.57;;
40162;SDS011;25881;47.462;19.304;2022-12-20T10:20:02;43.72;;;21.63;;
40162;SDS011;25881;47.462;19.304;2022-12-20T10:25:15;39.55;;;19.98;;
40162;SDS011;25881;47.462;19.304;2022-12-20T10:27:41;46.08;;;23.00;;
40162;SDS011;25881;47.462;19.304;2022-12-20T10:30:12;45.35;;;22.83;;
40162;SDS011;25881;47.462;19.304;2022-12-20T10:32:37;43.88;;;21.85;;
40162;SDS011;25881;47.462;19.304;2022-12-20T10:37:34;41.80;;;21.23;;
40162;SDS011;25881;47.462;19.304;2022-12-20T10:39:59;46.50;;;23.63;;
40162;SDS011;25881;47.462;19.304;2022-12-20T10:42:38;41.27;;;20.67;;
40162;SDS011;25881;47.462;19.304;2022-12-20T10:45:26;37.72;;;19.40;;
40162;SDS011;25881;47.462;19.304;2022-12-20T10:47:50;38.85;;;19.45;;
40162;SDS011;25881;47.462;19.304;2022-12-20T10:50:19;41.05;;;19.80;;
40162;SDS011;25881;47.462;19.304;2022-12-20T10:52:45;40.33;;;19.15;;
40162;SDS011;25881;47.462;19.304;2022-12-20T10:58:01;36.80;;;18.33;;
40162;SDS011;25881;47.462;19.304;2022-12-20T11:00:27;40.20;;;20.73;;
40162;SDS011;25881;47.462;19.304;2022-12-20T11:03:06;36.28;;;17.20;;
40162;SDS011;25881;47.462;19.304;2022-12-20T11:05:31;35.33;;;17.17;;
40162;SDS011;25881;47.462;19.304;2022-12-20T11:08:18;38.67;;;18.70;;
40162;SDS011;25881;47.462;19.304;2022-12-20T11:10:43;39.03;;;18.33;;
40162;SDS011;25881;47.462;19.304;2022-12-20T11:13:17;37.28;;;18.30;;
40162;SDS011;25881;47.462;19.304;2022-12-20T11:15:46;37.72;;;18.73;;
40162;SDS011;25881;47.462;19.304;2022-12-20T11:18:14;34.30;;;16.25;;
40162;SDS011;25881;47.462;19.304;2022-12-20T11:21:02;33.20;;;16.90;;
40162;SDS011;25881;47.462;19.304;2022-12-20T11:30:51;38.50;;;16.98;;
40162;SDS011;25881;47.462;19.304;2022-12-20T11:35:49;35.10;;;17.13;;
40162;SDS011;25881;47.462;19.304;2022-12-20T11:46:23;35.78;;;16.33;;
40162;SDS011;25881;47.462;19.304;2022-12-20T11:51:42;30.42;;;16.75;;
40162;SDS011;25881;47.462;19.304;2022-12-20T11:54:10;33.03;;;16.55;;
40162;SDS011;25881;47.462;19.304;2022-12-20T12:04:40;33.33;;;17.27;;
40162;SDS011;25881;47.462;19.304;2022-12-20T12:07:39;32.15;;;17.27;;
40162;SDS011;25881;47.462;19.304;2022-12-20T12:09:59;36.15;;;17.40;;
40162;SDS011;25881;47.462;19.304;2022-12-20T12:14:55;37.65;;;17.70;;
40162;SDS011;25881;47.462;19.304;2022-12-20T12:17:45;35.55;;;18.05;;
40162;SDS011;25881;47.462;19.304;2022-12-20T12:20:14;37.67;;;18.25;;
40162;SDS011;25881;47.462;19.304;2022-12-20T12:22:42;36.22;;;17.42;;
40162;SDS011;25881;47.462;19.304;2022-12-20T12:25:10;34.33;;;17.05;;
40162;SDS011;25881;47.462;19.304;2022-12-20T12:30:02;32.42;;;15.68;;
40162;SDS011;25881;47.462;19.304;2022-12-20T12:32:38;33.85;;;16.92;;
40162;SDS011;25881;47.462;19.304;2022-12-20T12:45:27;34.53;;;17.73;;
40162;SDS011;25881;47.462;19.304;2022-12-20T12:47:54;39.60;;;18.60;;
40162;SDS011;25881;47.462;19.304;2022-12-20T12:50:41;32.80;;;17.40;;
40162;SDS011;25881;47.462;19.304;2022-12-20T12:53:07;40.85;;;20.50;;
40162;SDS011;25881;47.462;19.304;2022-12-20T12:55:40;40.78;;;21.65;;
40162;SDS011;25881;47.462;19.304;2022-12-20T13:11:32;47.50;;;24.15;;
40162;SDS011;25881;47.462;19.304;2022-12-20T13:16:44;40.95;;;20.70;;
40162;SDS011;25881;47.462;19.304;2022-12-20T13:19:11;48.38;;;22.60;;
40162;SDS011;25881;47.462;19.304;2022-12-20T13:21:37;42.00;;;23.00;;
40162;SDS011;25881;47.462;19.304;2022-12-20T13:26:49;44.58;;;22.70;;
40162;SDS011;25881;47.462;19.304;2022-12-20T13:29:25;43.40;;;22.52;;
40162;SDS011;25881;47.462;19.304;2022-12-20T13:31:51;42.38;;;22.27;;
40162;SDS011;25881;47.462;19.304;2022-12-20T13:34:36;45.42;;;23.23;;
40162;SDS011;25881;47.462;19.304;2022-12-20T13:37:01;48.70;;;23.67;;
40162;SDS011;25881;47.462;19.304;2022-12-20T13:44:39;43.40;;;22.95;;
40162;SDS011;25881;47.462;19.304;2022-12-20T13:47:06;46.75;;;22.70;;
40162;SDS011;25881;47.462;19.304;2022-12-20T13:49:40;47.90;;;23.65;;
40162;SDS011;25881;47.462;19.304;2022-12-20T13:54:41;51.70;;;27.38;;
40162;SDS011;25881;47.462;19.304;2022-12-20T13:57:07;44.80;;;24.92;;
40162;SDS011;25881;47.462;19.304;2022-12-20T13:59:34;53.28;;;25.55;;
40162;SDS011;25881;47.462;19.304;2022-12-20T14:02:01;54.55;;;24.65;;
40162;SDS011;25881;47.462;19.304;2022-12-20T14:04:42;47.30;;;24.58;;
40162;SDS011;25881;47.462;19.304;2022-12-20T14:07:08;49.00;;;25.50;;
40162;SDS011;25881;47.462;19.304;2022-12-20T14:09:37;52.65;;;26.48;;
40162;SDS011;25881;47.462;19.304;2022-12-20T14:12:09;55.20;;;27.92;;
40162;SDS011;25881;47.462;19.304;2022-12-20T14:14:42;57.30;;;27.65;;
40162;SDS011;25881;47.462;19.304;2022-12-20T14:17:21;55.95;;;29.20;;
40162;SDS011;25881;47.462;19.304;2022-12-20T14:19:47;54.50;;;28.50;;
40162;SDS011;25881;47.462;19.304;2022-12-20T14:22:12;60.90;;;31.48;;
40162;SDS011;25881;47.462;19.304;2022-12-20T14:24:38;91.38;;;43.95;;
40162;SDS011;25881;47.462;19.304;2022-12-20T14:27:07;81.63;;;37.45;;
40162;SDS011;25881;47.462;19.304;2022-12-20T14:29:32;91.65;;;37.00;;
40162;SDS011;25881;47.462;19.304;2022-12-20T14:31:58;83.82;;;37.30;;
40162;SDS011;25881;47.462;19.304;2022-12-20T14:34:25;121.67;;;46.60;;
40162;SDS011;25881;47.462;19.304;2022-12-20T14:36:50;96.85;;;41.55;;
40162;SDS011;25881;47.462;19.304;2022-12-20T14:39:26;64.78;;;31.92;;
40162;SDS011;25881;47.462;19.304;2022-12-20T14:41:58;69.75;;;34.38;;
40162;SDS011;25881;47.462;19.304;2022-12-20T14:44:25;73.47;;;34.00;;
40162;SDS011;25881;47.462;19.304;2022-12-20T14:46:52;70.97;;;34.55;;
40162;SDS011;25881;47.462;19.304;2022-12-20T14:51:43;60.25;;;32.80;;
40162;SDS011;25881;47.462;19.304;2022-12-20T14:54:16;59.08;;;29.70;;
40162;SDS011;25881;47.462;19.304;2022-12-20T14:56:46;57.83;;;28.30;;
40162;SDS011;25881;47.462;19.304;2022-12-20T14:59:15;59.22;;;28.73;;
40162;SDS011;25881;47.462;19.304;2022-12-20T15:01:41;58.63;;;29.08;;
40162;SDS011;25881;47.462;19.304;2022-12-20T15:06:47;53.97;;;28.10;;
40162;SDS011;25881;47.462;19.304;2022-12-20T15:09:12;58.00;;;29.97;;
40162;SDS011;25881;47.462;19.304;2022-12-20T15:11:38;61.42;;;30.25;;
40162;SDS011;25881;47.462;19.304;2022-12-20T15:14:17;53.38;;;28.58;;
40162;SDS011;25881;47.462;19.304;2022-12-20T15:16:45;54.05;;;29.05;;
40162;SDS011;25881;47.462;19.304;2022-12-20T15:19:11;56.28;;;29.88;;
40162;SDS011;25881;47.462;19.304;2022-12-20T15:21:37;54.23;;;28.17;;
40162;SDS011;25881;47.462;19.304;2022-12-20T15:24:08;53.47;;;28.13;;
40162;SDS011;25881;47.462;19.304;2022-12-20T15:26:34;60.30;;;28.73;;
40162;SDS011;25881;47.462;19.304;2022-12-20T15:28:59;57.78;;;29.08;;
40162;SDS011;25881;47.462;19.304;2022-12-20T15:31:25;58.33;;;27.37;;
40162;SDS011;25881;47.462;19.304;2022-12-20T15:33:51;68.65;;;31.52;;
40162;SDS011;25881;47.462;19.304;2022-12-20T15:36:25;54.57;;;27.50;;
40162;SDS011;25881;47.462;19.304;2022-12-20T15:38:50;53.47;;;26.02;;
40162;SDS011;25881;47.462;19.304;2022-12-20T15:43:41;57.67;;;29.08;;
40162;SDS011;25881;47.462;19.304;2022-12-20T15:46:07;56.65;;;28.10;;
40162;SDS011;25881;47.462;19.304;2022-12-20T15:48:32;56.83;;;26.88;;
40162;SDS011;25881;47.462;19.304;2022-12-20T15:50:57;55.30;;;29.17;;
40162;SDS011;25881;47.462;19.304;2022-12-20T15:53:27;54.22;;;29.35;;
40162;SDS011;25881;47.462;19.304;2022-12-20T15:55:54;58.35;;;30.17;;
40162;SDS011;25881;47.462;19.304;2022-12-20T15:58:22;57.13;;;30.00;;
40162;SDS011;25881;47.462;19.304;2022-12-20T16:00:47;60.00;;;32.75;;
40162;SDS011;25881;47.462;19.304;2022-12-20T16:03:14;67.05;;;33.97;;
40162;SDS011;25881;47.462;19.304;2022-12-20T16:05:39;65.95;;;33.25;;
40162;SDS011;25881;47.462;19.304;2022-12-20T16:08:05;65.85;;;32.85;;